sensor_id;sensor_type;location;lat;lon;timestamp;pressure;altitude;pressure_sealevel;temperature;humidity
56894;BME280;43392;50.078;13.704;2022-09-06T00:02:30;97448.94;;;16.35;81.99
56894;BME280;43392;50.078;13.704;2022-09-06T00:04:57;97454.44;;;16.30;81.86
56894;BME280;43392;50.078;13.704;2022-09-06T00:07:25;97452.06;;;16.29;82.31
56894;BME280;43392;50.078;13.704;2022-09-06T00:09:52;97449.34;;;16.29;82.22
56894;BME280;43392;50.078;13.704;2022-09-06T00:12:18;97447.44;;;16.29;81.88
56894;BME280;43392;50.078;13.704;2022-09-06T00:14:45;97440.81;;;16.35;81.94
56894;BME280;43392;50.078;13.704;2022-09-06T00:17:12;97433.72;;;16.39;81.78
56894;BME280;43392;50.078;13.704;2022-09-06T00:19:38;97435.03;;;16.42;82.27
56894;BME280;43392;50.078;13.704;2022-09-06T00:22:05;97433.31;;;16.46;81.78
56894;BME280;43392;50.078;13.704;2022-09-06T00:24:33;97429.31;;;16.43;81.98
56894;BME280;43392;50.078;13.704;2022-09-06T00:27:01;97416.19;;;16.37;82.25
56894;BME280;43392;50.078;13.704;2022-09-06T00:29:28;97421.59;;;16.37;82.30
56894;BME280;43392;50.078;13.704;2022-09-06T00:31:54;97423.28;;;16.33;82.16
56894;BME280;43392;50.078;13.704;2022-09-06T00:34:21;97424.69;;;16.30;82.67
56894;BME280;43392;50.078;13.704;2022-09-06T00:36:47;97429.59;;;16.28;82.61
56894;BME280;43392;50.078;13.704;2022-09-06T00:39:14;97420.38;;;16.29;82.65
56894;BME280;43392;50.078;13.704;2022-09-06T00:41:42;97415.78;;;16.30;82.50
56894;BME280;43392;50.078;13.704;2022-09-06T00:44:09;97428.78;;;16.28;82.45
56894;BME280;43392;50.078;13.704;2022-09-06T00:46:38;97417.19;;;16.27;82.59
56894;BME280;43392;50.078;13.704;2022-09-06T00:49:08;97417.97;;;16.28;82.87
56894;BME280;43392;50.078;13.704;2022-09-06T00:51:36;97416.88;;;16.29;82.59
56894;BME280;43392;50.078;13.704;2022-09-06T00:54:04;97427.19;;;16.27;82.18
56894;BME280;43392;50.078;13.704;2022-09-06T00:56:32;97429.41;;;16.25;82.41
56894;BME280;43392;50.078;13.704;2022-09-06T00:59:01;97429.78;;;16.18;82.45
56894;BME280;43392;50.078;13.704;2022-09-06T01:01:28;97429.47;;;16.06;82.30
56894;BME280;43392;50.078;13.704;2022-09-06T01:03:55;97430.19;;;15.98;82.39
56894;BME280;43392;50.078;13.704;2022-09-06T01:06:25;97427.66;;;15.88;83.13
56894;BME280;43392;50.078;13.704;2022-09-06T01:09:02;97424.81;;;15.79;83.31
56894;BME280;43392;50.078;13.704;2022-09-06T01:11:52;97428.41;;;15.75;83.17
56894;BME280;43392;50.078;13.704;2022-09-06T01:14:35;97429.81;;;15.72;83.40
56894;BME280;43392;50.078;13.704;2022-09-06T01:17:11;97431.13;;;15.75;83.78
56894;BME280;43392;50.078;13.704;2022-09-06T01:20:14;97433.72;;;15.80;83.24
56894;BME280;43392;50.078;13.704;2022-09-06T01:25:40;97445.59;;;15.84;82.33
56894;BME280;43392;50.078;13.704;2022-09-06T01:28:30;97448.53;;;15.69;82.27
56894;BME280;43392;50.078;13.704;2022-09-06T01:31:11;97449.00;;;15.57;83.15
56894;BME280;43392;50.078;13.704;2022-09-06T01:33:47;97439.84;;;15.53;83.23
56894;BME280;43392;50.078;13.704;2022-09-06T01:36:18;97447.09;;;15.58;82.80
56894;BME280;43392;50.078;13.704;2022-09-06T01:38:47;97446.06;;;15.54;83.23
56894;BME280;43392;50.078;13.704;2022-09-06T01:41:14;97445.97;;;15.45;83.10
56894;BME280;43392;50.078;13.704;2022-09-06T01:43:45;97453.06;;;15.36;82.92
56894;BME280;43392;50.078;13.704;2022-09-06T01:46:18;97445.63;;;15.09;83.98
56894;BME280;43392;50.078;13.704;2022-09-06T01:48:58;97449.72;;;15.07;84.20
56894;BME280;43392;50.078;13.704;2022-09-06T01:51:30;97449.66;;;15.12;84.01
56894;BME280;43392;50.078;13.704;2022-09-06T01:54:14;97450.69;;;15.16;84.61
56894;BME280;43392;50.078;13.704;2022-09-06T01:56:51;97444.69;;;15.19;84.38
56894;BME280;43392;50.078;13.704;2022-09-06T01:59:34;97463.53;;;15.24;84.29
56894;BME280;43392;50.078;13.704;2022-09-06T02:02:07;97462.44;;;15.25;83.60
56894;BME280;43392;50.078;13.704;2022-09-06T02:04:43;97462.94;;;15.27;83.77
56894;BME280;43392;50.078;13.704;2022-09-06T02:07:15;97461.31;;;15.26;83.72
56894;BME280;43392;50.078;13.704;2022-09-06T02:09:44;97455.41;;;15.24;84.06
56894;BME280;43392;50.078;13.704;2022-09-06T02:12:13;97450.91;;;15.19;84.10
56894;BME280;43392;50.078;13.704;2022-09-06T02:14:48;97457.91;;;15.20;84.17
56894;BME280;43392;50.078;13.704;2022-09-06T02:17:20;97452.50;;;15.20;84.39
56894;BME280;43392;50.078;13.704;2022-09-06T02:19:52;97450.91;;;15.19;84.92
56894;BME280;43392;50.078;13.704;2022-09-06T02:22:22;97446.31;;;15.20;84.54
56894;BME280;43392;50.078;13.704;2022-09-06T02:24:52;97454.91;;;15.22;84.85
56894;BME280;43392;50.078;13.704;2022-09-06T02:27:20;97456.53;;;15.23;84.86
56894;BME280;43392;50.078;13.704;2022-09-06T02:29:49;97451.41;;;15.21;84.57
56894;BME280;43392;50.078;13.704;2022-09-06T02:32:18;97445.50;;;15.19;84.83
56894;BME280;43392;50.078;13.704;2022-09-06T02:34:46;97441.19;;;15.18;85.00
56894;BME280;43392;50.078;13.704;2022-09-06T02:37:14;97436.88;;;15.17;84.75
56894;BME280;43392;50.078;13.704;2022-09-06T02:39:42;97439.28;;;15.19;84.91
56894;BME280;43392;50.078;13.704;2022-09-06T02:42:10;97440.91;;;15.20;85.04
56894;BME280;43392;50.078;13.704;2022-09-06T02:44:38;97448.69;;;15.21;85.00
56894;BME280;43392;50.078;13.704;2022-09-06T02:47:06;97455.72;;;15.22;84.88
56894;BME280;43392;50.078;13.704;2022-09-06T02:49:33;97447.09;;;15.20;85.22
56894;BME280;43392;50.078;13.704;2022-09-06T02:52:00;97444.19;;;15.17;85.18
56894;BME280;43392;50.078;13.704;2022-09-06T02:54:27;97452.28;;;15.17;85.54
56894;BME280;43392;50.078;13.704;2022-09-06T02:56:53;97440.41;;;15.18;85.10
56894;BME280;43392;50.078;13.704;2022-09-06T02:59:20;97446.31;;;15.20;85.54
56894;BME280;43392;50.078;13.704;2022-09-06T03:01:46;97447.91;;;15.21;85.43
56894;BME280;43392;50.078;13.704;2022-09-06T03:04:14;97433.28;;;15.22;85.06
56894;BME280;43392;50.078;13.704;2022-09-06T03:06:41;97427.09;;;15.21;85.33
56894;BME280;43392;50.078;13.704;2022-09-06T03:09:07;97433.28;;;15.22;85.33
56894;BME280;43392;50.078;13.704;2022-09-06T03:11:34;97424.19;;;15.18;84.90
56894;BME280;43392;50.078;13.704;2022-09-06T03:14:01;97427.16;;;15.16;85.58
56894;BME280;43392;50.078;13.704;2022-09-06T03:16:27;97431.25;;;15.14;85.05
56894;BME280;43392;50.078;13.704;2022-09-06T03:18:54;97428.03;;;15.12;85.47
56894;BME280;43392;50.078;13.704;2022-09-06T03:21:22;97430.16;;;15.15;85.50
56894;BME280;43392;50.078;13.704;2022-09-06T03:23:49;97433.94;;;15.14;84.70
56894;BME280;43392;50.078;13.704;2022-09-06T03:26:16;97436.00;;;15.03;83.82
56894;BME280;43392;50.078;13.704;2022-09-06T03:28:43;97425.91;;;14.90;84.36
56894;BME280;43392;50.078;13.704;2022-09-06T03:31:10;97439.19;;;14.68;84.99
56894;BME280;43392;50.078;13.704;2022-09-06T03:33:36;97440.09;;;14.58;85.77
56894;BME280;43392;50.078;13.704;2022-09-06T03:36:03;97443.91;;;14.57;85.45
56894;BME280;43392;50.078;13.704;2022-09-06T03:38:31;97437.91;;;14.60;85.75
56894;BME280;43392;50.078;13.704;2022-09-06T03:40:58;97434.44;;;14.60;85.90
56894;BME280;43392;50.078;13.704;2022-09-06T03:43:26;97434.94;;;14.62;86.01
56894;BME280;43392;50.078;13.704;2022-09-06T03:45:55;97424.41;;;14.60;85.45
56894;BME280;43392;50.078;13.704;2022-09-06T03:48:24;97429.75;;;14.66;85.89
56894;BME280;43392;50.078;13.704;2022-09-06T03:50:54;97416.25;;;14.66;85.90
56894;BME280;43392;50.078;13.704;2022-09-06T03:53:21;97418.75;;;14.62;86.01
56894;BME280;43392;50.078;13.704;2022-09-06T03:55:51;97417.06;;;14.66;86.05
56894;BME280;43392;50.078;13.704;2022-09-06T03:58:20;97418.97;;;14.66;85.54
56894;BME280;43392;50.078;13.704;2022-09-06T04:00:47;97422.19;;;14.68;85.51
56894;BME280;43392;50.078;13.704;2022-09-06T04:03:14;97415.69;;;14.69;86.03
56894;BME280;43392;50.078;13.704;2022-09-06T04:05:44;97412.19;;;14.68;86.04
56894;BME280;43392;50.078;13.704;2022-09-06T04:08:11;97416.00;;;14.67;86.22
56894;BME280;43392;50.078;13.704;2022-09-06T04:10:37;97414.88;;;14.68;85.86
56894;BME280;43392;50.078;13.704;2022-09-06T04:13:06;97410.03;;;14.70;86.07
56894;BME280;43392;50.078;13.704;2022-09-06T04:15:32;97411.41;;;14.68;85.67
56894;BME280;43392;50.078;13.704;2022-09-06T04:17:59;97413.34;;;14.62;85.99
56894;BME280;43392;50.078;13.704;2022-09-06T04:20:25;97402.31;;;14.58;86.30
56894;BME280;43392;50.078;13.704;2022-09-06T04:22:52;97405.91;;;14.54;85.90
56894;BME280;43392;50.078;13.704;2022-09-06T04:25:19;97394.88;;;14.50;85.65
56894;BME280;43392;50.078;13.704;2022-09-06T04:27:45;97399.75;;;14.48;85.77
56894;BME280;43392;50.078;13.704;2022-09-06T04:30:13;97397.91;;;14.44;86.11
56894;BME280;43392;50.078;13.704;2022-09-06T04:32:40;97402.00;;;14.41;86.00
56894;BME280;43392;50.078;13.704;2022-09-06T04:35:07;97396.09;;;14.39;86.11
56894;BME280;43392;50.078;13.704;2022-09-06T04:37:34;97401.22;;;14.41;85.94
56894;BME280;43392;50.078;13.704;2022-09-06T04:40:01;97402.81;;;14.42;86.31
56894;BME280;43392;50.078;13.704;2022-09-06T04:42:27;97402.25;;;14.45;85.81
56894;BME280;43392;50.078;13.704;2022-09-06T04:44:54;97416.53;;;14.45;85.77
56894;BME280;43392;50.078;13.704;2022-09-06T04:47:22;97418.44;;;14.45;85.64
56894;BME280;43392;50.078;13.704;2022-09-06T04:49:50;97420.81;;;14.46;85.88
56894;BME280;43392;50.078;13.704;2022-09-06T04:52:16;97422.66;;;14.27;85.15
56894;BME280;43392;50.078;13.704;2022-09-06T04:54:43;97417.97;;;14.14;85.91
56894;BME280;43392;50.078;13.704;2022-09-06T04:57:09;97419.56;;;14.15;86.30
56894;BME280;43392;50.078;13.704;2022-09-06T04:59:36;97420.59;;;14.19;86.25
56894;BME280;43392;50.078;13.704;2022-09-06T05:02:03;97413.03;;;14.21;86.21
56894;BME280;43392;50.078;13.704;2022-09-06T05:04:31;97416.91;;;14.10;86.71
56894;BME280;43392;50.078;13.704;2022-09-06T05:07:01;97412.56;;;14.14;87.24
56894;BME280;43392;50.078;13.704;2022-09-06T05:09:28;97412.44;;;14.24;86.57
56894;BME280;43392;50.078;13.704;2022-09-06T05:11:55;97425.84;;;14.34;86.28
56894;BME280;43392;50.078;13.704;2022-09-06T05:14:22;97427.09;;;14.42;86.20
56894;BME280;43392;50.078;13.704;2022-09-06T05:16:49;97423.25;;;14.48;86.46
56894;BME280;43392;50.078;13.704;2022-09-06T05:19:16;97426.41;;;14.55;86.19
56894;BME280;43392;50.078;13.704;2022-09-06T05:21:44;97424.41;;;14.60;86.60
56894;BME280;43392;50.078;13.704;2022-09-06T05:24:11;97417.88;;;14.67;86.37
56894;BME280;43392;50.078;13.704;2022-09-06T05:26:38;97428.03;;;14.75;86.25
56894;BME280;43392;50.078;13.704;2022-09-06T05:29:04;97421.97;;;14.83;86.17
56894;BME280;43392;50.078;13.704;2022-09-06T05:31:32;97427.53;;;14.91;86.24
56894;BME280;43392;50.078;13.704;2022-09-06T05:33:59;97423.91;;;15.01;85.76
56894;BME280;43392;50.078;13.704;2022-09-06T05:36:27;97426.72;;;15.09;85.93
56894;BME280;43392;50.078;13.704;2022-09-06T05:38:56;97427.69;;;15.18;86.23
56894;BME280;43392;50.078;13.704;2022-09-06T05:41:23;97423.22;;;15.27;85.84
56894;BME280;43392;50.078;13.704;2022-09-06T05:43:50;97428.75;;;15.36;85.41
56894;BME280;43392;50.078;13.704;2022-09-06T05:46:17;97434.97;;;15.37;85.51
56894;BME280;43392;50.078;13.704;2022-09-06T05:48:50;97440.38;;;15.37;85.32
56894;BME280;43392;50.078;13.704;2022-09-06T05:51:17;97438.09;;;15.44;85.48
56894;BME280;43392;50.078;13.704;2022-09-06T05:53:44;97439.94;;;15.48;85.32
56894;BME280;43392;50.078;13.704;2022-09-06T05:56:13;97437.88;;;15.59;85.42
56894;BME280;43392;50.078;13.704;2022-09-06T05:58:39;97439.31;;;15.70;85.42
56894;BME280;43392;50.078;13.704;2022-09-06T06:01:12;97431.53;;;15.82;85.02
56894;BME280;43392;50.078;13.704;2022-09-06T06:03:39;97435.44;;;15.89;84.84
56894;BME280;43392;50.078;13.704;2022-09-06T06:06:07;97445.19;;;15.90;84.57
56894;BME280;43392;50.078;13.704;2022-09-06T06:08:34;97452.56;;;15.85;84.11
56894;BME280;43392;50.078;13.704;2022-09-06T06:11:01;97461.25;;;15.68;85.21
56894;BME280;43392;50.078;13.704;2022-09-06T06:13:29;97462.00;;;15.55;85.26
56894;BME280;43392;50.078;13.704;2022-09-06T06:15:59;97462.06;;;15.50;85.73
56894;BME280;43392;50.078;13.704;2022-09-06T06:18:26;97455.38;;;15.48;85.40
56894;BME280;43392;50.078;13.704;2022-09-06T06:21:06;97463.53;;;15.43;85.83
56894;BME280;43392;50.078;13.704;2022-09-06T06:23:32;97469.78;;;15.38;86.08
56894;BME280;43392;50.078;13.704;2022-09-06T06:25:59;97475.72;;;15.40;85.72
56894;BME280;43392;50.078;13.704;2022-09-06T06:28:25;97470.59;;;15.39;85.86
56894;BME280;43392;50.078;13.704;2022-09-06T06:30:53;97468.41;;;15.41;85.45
56894;BME280;43392;50.078;13.704;2022-09-06T06:33:20;97459.47;;;15.45;85.61
56894;BME280;43392;50.078;13.704;2022-09-06T06:35:55;97457.69;;;15.54;85.99
56894;BME280;43392;50.078;13.704;2022-09-06T06:38:22;97445.34;;;15.67;85.69
56894;BME280;43392;50.078;13.704;2022-09-06T06:40:49;97448.56;;;15.82;85.18
56894;BME280;43392;50.078;13.704;2022-09-06T06:43:15;97444.47;;;15.99;85.30
56894;BME280;43392;50.078;13.704;2022-09-06T06:45:47;97441.31;;;16.10;84.85
56894;BME280;43392;50.078;13.704;2022-09-06T06:48:15;97435.19;;;16.18;84.65
56894;BME280;43392;50.078;13.704;2022-09-06T06:50:42;97436.91;;;16.28;84.17
56894;BME280;43392;50.078;13.704;2022-09-06T06:53:09;97429.22;;;16.35;84.26
56894;BME280;43392;50.078;13.704;2022-09-06T06:55:35;97422.09;;;16.39;84.05
56894;BME280;43392;50.078;13.704;2022-09-06T06:58:02;97417.38;;;16.44;83.94
56894;BME280;43392;50.078;13.704;2022-09-06T07:00:29;97414.53;;;16.49;83.84
56894;BME280;43392;50.078;13.704;2022-09-06T07:02:56;97425.03;;;16.56;83.66
56894;BME280;43392;50.078;13.704;2022-09-06T07:05:24;97419.00;;;16.59;83.62
56894;BME280;43392;50.078;13.704;2022-09-06T07:07:51;97418.09;;;16.64;83.43
56894;BME280;43392;50.078;13.704;2022-09-06T07:10:18;97422.59;;;16.68;83.14
56894;BME280;43392;50.078;13.704;2022-09-06T07:12:44;97420.91;;;16.58;83.32
56894;BME280;43392;50.078;13.704;2022-09-06T07:15:11;97427.31;;;16.63;82.94
56894;BME280;43392;50.078;13.704;2022-09-06T07:17:38;97424.28;;;16.64;82.90
56894;BME280;43392;50.078;13.704;2022-09-06T07:20:05;97418.88;;;16.64;82.55
56894;BME280;43392;50.078;13.704;2022-09-06T07:22:34;97423.31;;;16.60;82.62
56894;BME280;43392;50.078;13.704;2022-09-06T07:25:01;97418.00;;;16.55;82.92
56894;BME280;43392;50.078;13.704;2022-09-06T07:27:28;97422.72;;;16.63;82.94
56894;BME280;43392;50.078;13.704;2022-09-06T07:29:54;97423.91;;;16.71;82.72
56894;BME280;43392;50.078;13.704;2022-09-06T07:32:21;97428.41;;;16.75;82.39
56894;BME280;43392;50.078;13.704;2022-09-06T07:34:47;97432.91;;;16.80;81.81
56894;BME280;43392;50.078;13.704;2022-09-06T07:37:14;97441.25;;;16.83;81.94
56894;BME280;43392;50.078;13.704;2022-09-06T07:39:42;97440.34;;;16.88;81.97
56894;BME280;43392;50.078;13.704;2022-09-06T07:42:09;97435.19;;;16.86;81.97
56894;BME280;43392;50.078;13.704;2022-09-06T07:44:36;97433.19;;;16.92;81.37
56894;BME280;43392;50.078;13.704;2022-09-06T07:47:02;97421.53;;;16.91;81.44
56894;BME280;43392;50.078;13.704;2022-09-06T07:49:30;97435.47;;;16.98;81.49
56894;BME280;43392;50.078;13.704;2022-09-06T07:51:57;97434.06;;;17.01;81.36
56894;BME280;43392;50.078;13.704;2022-09-06T07:54:24;97440.59;;;17.00;81.72
56894;BME280;43392;50.078;13.704;2022-09-06T07:56:52;97441.59;;;17.04;81.52
56894;BME280;43392;50.078;13.704;2022-09-06T07:59:18;97442.78;;;17.11;81.20
56894;BME280;43392;50.078;13.704;2022-09-06T08:01:45;97445.88;;;17.18;81.29
56894;BME280;43392;50.078;13.704;2022-09-06T08:04:13;97449.75;;;17.26;81.00
56894;BME280;43392;50.078;13.704;2022-09-06T08:06:41;97458.38;;;17.28;80.85
56894;BME280;43392;50.078;13.704;2022-09-06T08:09:08;97447.88;;;17.27;80.22
56894;BME280;43392;50.078;13.704;2022-09-06T08:11:36;97448.53;;;17.32;80.63
56894;BME280;43392;50.078;13.704;2022-09-06T08:14:06;97443.31;;;17.36;80.34
56894;BME280;43392;50.078;13.704;2022-09-06T08:16:34;97437.78;;;17.41;80.05
56894;BME280;43392;50.078;13.704;2022-09-06T08:19:04;97440.38;;;17.46;80.18
56894;BME280;43392;50.078;13.704;2022-09-06T08:21:32;97441.03;;;17.51;79.95
56894;BME280;43392;50.078;13.704;2022-09-06T08:24:00;97445.06;;;17.54;79.65
56894;BME280;43392;50.078;13.704;2022-09-06T08:26:29;97440.66;;;17.58;79.86
56894;BME280;43392;50.078;13.704;2022-09-06T08:28:57;97440.03;;;17.61;79.56
56894;BME280;43392;50.078;13.704;2022-09-06T08:31:26;97435.09;;;17.63;79.30
56894;BME280;43392;50.078;13.704;2022-09-06T08:33:54;97439.28;;;17.69;78.99
56894;BME280;43392;50.078;13.704;2022-09-06T08:36:21;97441.06;;;17.73;78.88
56894;BME280;43392;50.078;13.704;2022-09-06T08:38:51;97436.31;;;17.79;78.54
56894;BME280;43392;50.078;13.704;2022-09-06T08:41:22;97432.84;;;17.87;77.83
56894;BME280;43392;50.078;13.704;2022-09-06T08:43:52;97437.03;;;17.93;77.70
56894;BME280;43392;50.078;13.704;2022-09-06T08:46:22;97434.66;;;18.00;77.77
56894;BME280;43392;50.078;13.704;2022-09-06T08:48:53;97435.84;;;18.08;77.81
56894;BME280;43392;50.078;13.704;2022-09-06T08:51:38;97428.22;;;18.18;77.19
56894;BME280;43392;50.078;13.704;2022-09-06T08:54:14;97416.59;;;18.26;76.81
56894;BME280;43392;50.078;13.704;2022-09-06T08:57:00;97415.53;;;18.36;76.13
56894;BME280;43392;50.078;13.704;2022-09-06T08:59:29;97410.25;;;18.39;76.29
56894;BME280;43392;50.078;13.704;2022-09-06T09:02:05;97404.50;;;18.41;76.17
56894;BME280;43392;50.078;13.704;2022-09-06T09:07:13;97401.00;;;18.40;75.41
56894;BME280;43392;50.078;13.704;2022-09-06T09:09:43;97393.25;;;18.47;75.53
56894;BME280;43392;50.078;13.704;2022-09-06T09:12:15;97394.22;;;18.60;75.34
56894;BME280;43392;50.078;13.704;2022-09-06T09:14:45;97397.38;;;18.53;75.60
56894;BME280;43392;50.078;13.704;2022-09-06T09:17:16;97390.19;;;18.49;75.15
56894;BME280;43392;50.078;13.704;2022-09-06T09:19:47;97402.00;;;18.53;75.26
56894;BME280;43392;50.078;13.704;2022-09-06T09:22:16;97394.88;;;18.66;74.64
56894;BME280;43392;50.078;13.704;2022-09-06T09:24:44;97399.22;;;18.84;74.46
56894;BME280;43392;50.078;13.704;2022-09-06T09:27:12;97395.88;;;18.87;74.03
56894;BME280;43392;50.078;13.704;2022-09-06T09:29:57;97393.50;;;18.94;73.20
56894;BME280;43392;50.078;13.704;2022-09-06T09:32:29;97392.69;;;19.02;73.06
56894;BME280;43392;50.078;13.704;2022-09-06T09:35:14;97382.63;;;19.11;72.74
56894;BME280;43392;50.078;13.704;2022-09-06T09:37:42;97377.81;;;19.16;72.75
56894;BME280;43392;50.078;13.704;2022-09-06T09:40:12;97385.19;;;19.25;72.24
56894;BME280;43392;50.078;13.704;2022-09-06T09:42:39;97374.13;;;19.30;72.31
56894;BME280;43392;50.078;13.704;2022-09-06T09:45:23;97385.81;;;19.30;71.82
56894;BME280;43392;50.078;13.704;2022-09-06T09:47:50;97371.91;;;19.23;72.41
56894;BME280;43392;50.078;13.704;2022-09-06T09:50:27;97375.72;;;19.13;72.46
56894;BME280;43392;50.078;13.704;2022-09-06T09:52:54;97382.44;;;19.33;72.01
56894;BME280;43392;50.078;13.704;2022-09-06T09:55:22;97374.44;;;19.28;71.71
56894;BME280;43392;50.078;13.704;2022-09-06T09:57:50;97373.34;;;19.46;71.37
56894;BME280;43392;50.078;13.704;2022-09-06T10:00:32;97363.72;;;19.66;70.60
56894;BME280;43392;50.078;13.704;2022-09-06T10:03:00;97361.13;;;19.69;70.88
56894;BME280;43392;50.078;13.704;2022-09-06T10:05:38;97352.19;;;19.69;70.49
56894;BME280;43392;50.078;13.704;2022-09-06T10:08:09;97350.75;;;19.71;70.67
56894;BME280;43392;50.078;13.704;2022-09-06T10:10:39;97348.97;;;19.75;70.38
56894;BME280;43392;50.078;13.704;2022-09-06T10:13:11;97344.75;;;19.95;70.27
56894;BME280;43392;50.078;13.704;2022-09-06T10:15:43;97346.13;;;20.10;69.30
56894;BME280;43392;50.078;13.704;2022-09-06T10:18:14;97337.91;;;20.18;69.44
56894;BME280;43392;50.078;13.704;2022-09-06T10:20:50;97339.03;;;20.26;69.12
56894;BME280;43392;50.078;13.704;2022-09-06T10:23:24;97325.38;;;20.34;69.13
56894;BME280;43392;50.078;13.704;2022-09-06T10:26:01;97339.72;;;20.43;69.19
56894;BME280;43392;50.078;13.704;2022-09-06T10:28:34;97327.97;;;20.51;68.84
56894;BME280;43392;50.078;13.704;2022-09-06T10:31:16;97327.00;;;20.56;68.14
56894;BME280;43392;50.078;13.704;2022-09-06T10:33:56;97322.47;;;20.60;68.47
56894;BME280;43392;50.078;13.704;2022-09-06T10:36:32;97318.75;;;20.65;68.93
56894;BME280;43392;50.078;13.704;2022-09-06T10:39:02;97325.28;;;20.72;68.26
56894;BME280;43392;50.078;13.704;2022-09-06T10:41:42;97323.47;;;20.76;68.47
56894;BME280;43392;50.078;13.704;2022-09-06T10:44:25;97323.44;;;20.85;67.84
56894;BME280;43392;50.078;13.704;2022-09-06T10:47:00;97314.72;;;20.91;68.05
56894;BME280;43392;50.078;13.704;2022-09-06T10:49:30;97319.25;;;21.08;68.16
56894;BME280;43392;50.078;13.704;2022-09-06T10:52:02;97318.50;;;21.20;67.04
56894;BME280;43392;50.078;13.704;2022-09-06T10:54:32;97315.56;;;21.25;67.81
56894;BME280;43392;50.078;13.704;2022-09-06T10:57:04;97315.28;;;21.38;67.00
56894;BME280;43392;50.078;13.704;2022-09-06T10:59:35;97308.16;;;21.46;67.52
56894;BME280;43392;50.078;13.704;2022-09-06T11:02:15;97309.31;;;21.57;66.98
56894;BME280;43392;50.078;13.704;2022-09-06T11:04:48;97308.53;;;21.68;67.07
56894;BME280;43392;50.078;13.704;2022-09-06T11:07:23;97308.78;;;21.75;66.25
56894;BME280;43392;50.078;13.704;2022-09-06T11:09:55;97320.94;;;21.78;66.62
56894;BME280;43392;50.078;13.704;2022-09-06T11:12:26;97311.97;;;21.77;67.08
56894;BME280;43392;50.078;13.704;2022-09-06T11:14:59;97305.81;;;21.80;66.57
56894;BME280;43392;50.078;13.704;2022-09-06T11:17:31;97306.28;;;21.82;65.94
56894;BME280;43392;50.078;13.704;2022-09-06T11:20:03;97315.53;;;21.90;66.35
56894;BME280;43392;50.078;13.704;2022-09-06T11:22:43;97305.19;;;21.96;65.69
56894;BME280;43392;50.078;13.704;2022-09-06T11:28:13;97293.25;;;22.00;65.28
56894;BME280;43392;50.078;13.704;2022-09-06T11:30:43;97282.09;;;22.05;64.60
56894;BME280;43392;50.078;13.704;2022-09-06T11:33:20;97279.16;;;22.10;64.69
56894;BME280;43392;50.078;13.704;2022-09-06T11:35:48;97278.03;;;22.11;64.23
56894;BME280;43392;50.078;13.704;2022-09-06T11:38:22;97278.78;;;22.12;63.95
56894;BME280;43392;50.078;13.704;2022-09-06T11:40:56;97275.75;;;22.13;63.88
56894;BME280;43392;50.078;13.704;2022-09-06T11:43:45;97281.66;;;22.15;64.02
56894;BME280;43392;50.078;13.704;2022-09-06T11:49:28;97263.34;;;22.04;64.14
56894;BME280;43392;50.078;13.704;2022-09-06T11:51:55;97272.44;;;22.20;63.63
56894;BME280;43392;50.078;13.704;2022-09-06T11:54:29;97270.13;;;22.34;63.56
56894;BME280;43392;50.078;13.704;2022-09-06T11:57:01;97268.66;;;22.36;63.22
56894;BME280;43392;50.078;13.704;2022-09-06T11:59:35;97266.28;;;22.35;62.93
56894;BME280;43392;50.078;13.704;2022-09-06T12:02:05;97264.66;;;22.34;63.07
56894;BME280;43392;50.078;13.704;2022-09-06T12:07:35;97264.56;;;22.30;62.64
56894;BME280;43392;50.078;13.704;2022-09-06T12:10:44;97250.41;;;22.40;62.20
56894;BME280;43392;50.078;13.704;2022-09-06T12:13:33;97244.84;;;22.49;61.54
56894;BME280;43392;50.078;13.704;2022-09-06T12:16:01;97244.25;;;22.56;61.63
56894;BME280;43392;50.078;13.704;2022-09-06T12:18:54;97239.94;;;22.67;61.18
56894;BME280;43392;50.078;13.704;2022-09-06T12:24:52;97236.03;;;22.68;61.55
56894;BME280;43392;50.078;13.704;2022-09-06T12:27:21;97225.97;;;22.84;61.20
56894;BME280;43392;50.078;13.704;2022-09-06T12:29:51;97226.25;;;22.94;60.22
56894;BME280;43392;50.078;13.704;2022-09-06T12:32:23;97227.50;;;22.97;60.39
56894;BME280;43392;50.078;13.704;2022-09-06T12:34:51;97231.78;;;23.10;60.60
56894;BME280;43392;50.078;13.704;2022-09-06T12:37:30;97216.69;;;23.16;60.82
56894;BME280;43392;50.078;13.704;2022-09-06T12:39:58;97219.84;;;23.02;60.80
56894;BME280;43392;50.078;13.704;2022-09-06T12:42:26;97223.06;;;22.92;61.48
56894;BME280;43392;50.078;13.704;2022-09-06T12:44:54;97218.47;;;22.81;60.97
56894;BME280;43392;50.078;13.704;2022-09-06T12:47:24;97226.47;;;22.74;61.00
56894;BME280;43392;50.078;13.704;2022-09-06T12:50:17;97222.81;;;22.70;61.00
56894;BME280;43392;50.078;13.704;2022-09-06T12:52:48;97224.31;;;22.67;60.89
56894;BME280;43392;50.078;13.704;2022-09-06T12:55:19;97223.53;;;22.67;61.33
56894;BME280;43392;50.078;13.704;2022-09-06T12:57:49;97223.16;;;22.68;60.96
56894;BME280;43392;50.078;13.704;2022-09-06T13:00:16;97222.03;;;22.69;60.77
56894;BME280;43392;50.078;13.704;2022-09-06T13:02:54;97215.97;;;22.76;60.25
56894;BME280;43392;50.078;13.704;2022-09-06T13:05:23;97216.38;;;22.90;60.76
56894;BME280;43392;50.078;13.704;2022-09-06T13:07:52;97213.63;;;22.90;60.59
56894;BME280;43392;50.078;13.704;2022-09-06T13:10:23;97217.31;;;22.82;60.87
56894;BME280;43392;50.078;13.704;2022-09-06T13:12:54;97200.94;;;22.70;60.79
56894;BME280;43392;50.078;13.704;2022-09-06T13:15:24;97216.38;;;22.62;61.08
56894;BME280;43392;50.078;13.704;2022-09-06T13:17:52;97202.72;;;22.50;61.37
56894;BME280;43392;50.078;13.704;2022-09-06T13:20:25;97207.16;;;22.42;62.20
56894;BME280;43392;50.078;13.704;2022-09-06T13:22:52;97205.34;;;22.34;61.89
56894;BME280;43392;50.078;13.704;2022-09-06T13:25:30;97204.69;;;22.37;61.77